createdAt,value
2022-12-27T00:01:16.391Z,16.60
2022-12-27T00:03:44.708Z,15.00
2022-12-27T00:06:18.429Z,14.80
2022-12-27T00:08:46.829Z,13.60
2022-12-27T00:11:16.974Z,14.10
2022-12-27T00:13:44.813Z,13.80
2022-12-27T00:16:14.474Z,14.50
2022-12-27T00:18:42.733Z,14.50
2022-12-27T00:21:12.732Z,12.60
2022-12-27T00:23:43.845Z,12.20
2022-12-27T00:26:34.171Z,12.90
2022-12-27T00:29:02.360Z,14.10
2022-12-27T00:31:31.375Z,14.00
2022-12-27T00:34:01.696Z,13.60
2022-12-27T00:36:31.006Z,14.00
2022-12-27T00:38:59.400Z,14.10
2022-12-27T00:41:27.627Z,14.00
2022-12-27T00:43:55.387Z,14.40
2022-12-27T00:46:23.140Z,15.40
2022-12-27T00:48:50.773Z,15.80
2022-12-27T00:51:21.055Z,17.20
2022-12-27T00:53:49.739Z,17.50
2022-12-27T00:56:25.388Z,18.00
2022-12-27T00:58:58.346Z,18.20
2022-12-27T01:01:29.784Z,19.00
2022-12-27T01:03:58.697Z,19.60
2022-12-27T01:06:29.195Z,20.30
2022-12-27T01:08:57.106Z,17.40
2022-12-27T01:11:27.030Z,19.20
2022-12-27T01:13:57.557Z,18.80
2022-12-27T01:16:26.902Z,17.60
2022-12-27T01:19:00.136Z,14.20
2022-12-27T01:24:57.335Z,11.70
2022-12-27T01:27:28.806Z,11.30
2022-12-27T01:30:00.677Z,12.40
2022-12-27T01:32:29.980Z,10.80
2022-12-27T01:34:59.091Z,9.80
2022-12-27T01:37:30.304Z,10.30
2022-12-27T01:39:58.262Z,10.40
2022-12-27T01:42:47.683Z,10.50
2022-12-27T01:45:21.527Z,10.80
2022-12-27T01:47:53.811Z,10.30
2022-12-27T01:50:39.207Z,9.80
2022-12-27T01:53:31.484Z,10.90
2022-12-27T01:56:11.182Z,11.30
2022-12-27T01:59:02.256Z,11.40
2022-12-27T02:01:39.968Z,11.20
2022-12-27T02:04:15.320Z,11.90
2022-12-27T02:06:43.172Z,11.20
2022-12-27T02:09:18.875Z,12.60
2022-12-27T02:11:52.344Z,13.10
2022-12-27T02:14:32.343Z,13.50
2022-12-27T02:17:10.120Z,13.30
2022-12-27T02:19:40.311Z,14.00
2022-12-27T02:22:57.668Z,13.60
2022-12-27T02:25:46.552Z,13.20
2022-12-27T02:28:48.460Z,12.90
2022-12-27T02:31:29.214Z,14.00
2022-12-27T02:33:57.890Z,13.10
2022-12-27T02:36:31.821Z,13.00
2022-12-27T02:39:01.390Z,11.30
2022-12-27T02:41:49.442Z,10.60
2022-12-27T02:44:38.790Z,11.10
2022-12-27T02:47:40.115Z,12.20
2022-12-27T02:50:27.585Z,12.70
2022-12-27T03:06:47.507Z,5.90
2022-12-27T03:09:40.349Z,6.00
2022-12-27T03:12:55.766Z,6.70
2022-12-27T03:15:53.529Z,5.80
2022-12-27T03:18:49.704Z,5.00
2022-12-27T03:21:58.836Z,3.90
2022-12-27T03:24:51.899Z,3.60
2022-12-27T03:27:34.633Z,3.40
2022-12-27T03:30:24.606Z,3.00
2022-12-27T03:33:13.765Z,3.00
2022-12-27T03:36:15.688Z,3.30
2022-12-27T03:38:52.045Z,3.40
2022-12-27T03:41:44.810Z,4.20
2022-12-27T03:44:24.797Z,4.40
2022-12-27T03:46:58.341Z,5.00
2022-12-27T03:49:33.680Z,4.00
2022-12-27T03:52:21.901Z,3.10
2022-12-27T03:54:51.191Z,2.30
2022-12-27T03:57:21.325Z,3.00
2022-12-27T03:59:49.304Z,3.60
2022-12-27T04:02:17.475Z,3.60
2022-12-27T04:04:45.701Z,3.40
2022-12-27T04:07:14.298Z,3.40
2022-12-27T04:10:01.341Z,4.30
2022-12-27T04:12:47.924Z,4.00
2022-12-27T04:15:34.378Z,4.30
2022-12-27T04:18:21.027Z,4.40
2022-12-27T04:21:07.404Z,4.20
2022-12-27T04:23:53.859Z,4.90
2022-12-27T04:26:40.438Z,4.50
2022-12-27T04:29:26.882Z,4.70
2022-12-27T04:32:13.432Z,4.50
2022-12-27T04:34:44.081Z,4.00
2022-12-27T04:37:19.405Z,4.50
2022-12-27T04:40:08.165Z,4.10
2022-12-27T04:42:55.303Z,3.60
2022-12-27T04:45:41.769Z,4.50
2022-12-27T04:48:31.212Z,3.90
2022-12-27T04:51:18.101Z,3.80
2022-12-27T04:54:04.660Z,3.70
2022-12-27T04:56:32.371Z,3.70
2022-12-27T04:59:19.023Z,4.10
2022-12-27T05:02:05.540Z,3.70
2022-12-27T05:04:35.826Z,4.20
2022-12-27T05:07:24.900Z,4.00
2022-12-27T05:10:11.464Z,4.30
2022-12-27T05:12:57.914Z,4.00
2022-12-27T05:15:25.606Z,3.80
2022-12-27T05:17:53.612Z,3.80
2022-12-27T05:20:21.310Z,4.00
2022-12-27T05:23:07.772Z,3.40
2022-12-27T05:25:40.722Z,4.20
2022-12-27T05:28:10.813Z,4.50
2022-12-27T05:30:43.376Z,4.40
2022-12-27T05:33:11.243Z,4.50
2022-12-27T05:35:39.618Z,4.50
2022-12-27T05:38:07.472Z,4.90
2022-12-27T05:40:35.590Z,4.60
2022-12-27T05:43:04.151Z,4.30
2022-12-27T05:45:32.780Z,4.30
2022-12-27T05:48:00.736Z,4.70
2022-12-27T05:50:28.580Z,4.10
2022-12-27T05:53:11.106Z,4.70
2022-12-27T05:55:38.877Z,3.80
2022-12-27T05:58:07.483Z,4.40
2022-12-27T06:00:35.157Z,4.60
2022-12-27T06:03:03.619Z,4.50
2022-12-27T06:05:31.577Z,5.20
2022-12-27T06:07:59.176Z,4.90
2022-12-27T06:10:26.890Z,5.00
2022-12-27T06:12:54.550Z,4.60
2022-12-27T06:15:22.177Z,4.90
2022-12-27T06:17:50.162Z,4.60
2022-12-27T06:20:18.269Z,4.20
2022-12-27T06:22:46.084Z,4.70
2022-12-27T06:25:14.653Z,5.10
2022-12-27T06:27:42.436Z,4.60
2022-12-27T06:30:12.369Z,5.00
2022-12-27T06:35:47.519Z,4.30
2022-12-27T06:38:15.087Z,4.80
2022-12-27T06:40:42.758Z,4.20
2022-12-27T06:43:10.460Z,4.00
2022-12-27T06:45:38.220Z,4.40
2022-12-27T06:48:06.238Z,4.80
2022-12-27T06:50:33.946Z,5.00
2022-12-27T06:53:01.623Z,5.10
2022-12-27T06:55:29.308Z,4.50
2022-12-27T06:57:56.986Z,4.60
2022-12-27T07:00:24.630Z,4.80
2022-12-27T07:02:52.287Z,5.00
2022-12-27T07:05:20.301Z,5.40
2022-12-27T07:07:48.003Z,5.10
2022-12-27T07:10:15.699Z,5.10
2022-12-27T07:12:43.316Z,5.50
2022-12-27T07:15:11.006Z,5.00
2022-12-27T07:17:39.317Z,4.80
2022-12-27T07:20:07.920Z,5.50
2022-12-27T07:22:35.657Z,5.30
2022-12-27T07:25:03.568Z,5.20
2022-12-27T07:27:34.342Z,5.70
2022-12-27T07:30:02.755Z,6.00
2022-12-27T07:32:30.785Z,5.20
2022-12-27T07:34:58.454Z,4.00
2022-12-27T07:37:26.171Z,4.50
2022-12-27T07:39:53.821Z,5.10
2022-12-27T07:42:21.542Z,4.30
2022-12-27T07:44:49.366Z,5.00
2022-12-27T07:47:17.026Z,5.30
2022-12-27T07:49:44.777Z,5.50
2022-12-27T07:52:12.416Z,6.10
2022-12-27T07:54:40.130Z,5.90
2022-12-27T07:57:07.770Z,6.10
2022-12-27T07:59:35.398Z,7.00
2022-12-27T08:02:04.378Z,7.20
2022-12-27T08:04:35.282Z,7.20
2022-12-27T08:07:15.793Z,7.90
2022-12-27T08:09:45.823Z,7.80
2022-12-27T08:12:14.458Z,8.10
2022-12-27T08:14:42.263Z,7.50
2022-12-27T08:17:20.967Z,7.90
2022-12-27T08:19:51.142Z,9.00
2022-12-27T08:22:18.887Z,9.50
2022-12-27T08:24:46.596Z,10.10
2022-12-27T08:27:20.411Z,10.50
2022-12-27T08:29:48.056Z,12.00
2022-12-27T08:32:16.102Z,12.00
2022-12-27T08:34:43.715Z,10.70
2022-12-27T08:37:11.452Z,11.30
2022-12-27T08:39:39.150Z,11.80
2022-12-27T08:42:06.804Z,11.30
2022-12-27T08:44:34.463Z,11.70
2022-12-27T08:47:02.232Z,10.70
2022-12-27T08:49:30.197Z,11.00
2022-12-27T08:51:57.864Z,10.60
2022-12-27T08:54:26.223Z,11.10
2022-12-27T08:56:53.867Z,11.50
2022-12-27T08:59:21.490Z,11.50
2022-12-27T09:01:49.447Z,10.50
2022-12-27T09:04:17.138Z,12.20
2022-12-27T09:06:44.801Z,11.20
2022-12-27T09:09:13.593Z,11.00
2022-12-27T09:11:41.315Z,11.70
2022-12-27T09:14:09.737Z,11.40
2022-12-27T09:16:38.621Z,10.70
2022-12-27T09:19:06.319Z,10.00
2022-12-27T09:21:34.378Z,10.00
2022-12-27T09:24:02.723Z,9.10
2022-12-27T09:26:30.778Z,9.20
2022-12-27T09:28:59.608Z,9.40
2022-12-27T09:31:28.204Z,8.00
2022-12-27T09:33:56.631Z,8.60
2022-12-27T09:36:27.392Z,8.70
2022-12-27T09:38:56.626Z,8.90
2022-12-27T09:42:44.854Z,9.60
2022-12-27T09:44:52.361Z,8.50
2022-12-27T09:47:47.287Z,9.10
2022-12-27T09:50:19.260Z,9.10
2022-12-27T09:52:52.987Z,9.40
2022-12-27T09:55:42.266Z,10.00
2022-12-27T09:58:36.226Z,9.20
2022-12-27T10:01:17.718Z,9.40
2022-12-27T10:03:45.439Z,9.30
2022-12-27T10:06:35.868Z,9.20
2022-12-27T10:09:32.282Z,9.70
2022-12-27T10:12:35.683Z,9.90
2022-12-27T10:15:27.199Z,10.10
2022-12-27T10:18:29.014Z,9.80
2022-12-27T10:21:14.818Z,9.60
2022-12-27T10:23:45.444Z,10.30
2022-12-27T10:26:15.250Z,10.90
2022-12-27T10:28:57.131Z,12.10
2022-12-27T10:31:25.705Z,11.90
2022-12-27T10:33:53.839Z,11.20
2022-12-27T10:36:27.447Z,11.00
2022-12-27T10:38:56.009Z,10.00
2022-12-27T10:41:32.515Z,11.20
2022-12-27T10:44:00.629Z,11.10
2022-12-27T10:46:33.130Z,9.80
2022-12-27T10:49:24.578Z,10.60
2022-12-27T10:51:54.207Z,10.50
2022-12-27T10:54:24.949Z,10.20
2022-12-27T10:56:53.325Z,11.30
2022-12-27T10:59:26.529Z,11.40
2022-12-27T11:02:00.658Z,19.10
2022-12-27T11:04:30.610Z,15.50
2022-12-27T11:07:02.070Z,11.50
2022-12-27T11:09:33.292Z,10.90
2022-12-27T11:12:23.899Z,13.00
2022-12-27T11:15:00.851Z,11.60
2022-12-27T11:17:44.379Z,12.10
2022-12-27T11:20:14.997Z,12.70
2022-12-27T11:22:48.649Z,11.20
2022-12-27T11:25:16.634Z,12.70
2022-12-27T11:27:49.850Z,12.20
2022-12-27T11:30:31.369Z,11.60
2022-12-27T11:33:39.945Z,11.40
2022-12-27T11:36:10.049Z,12.40
2022-12-27T11:38:38.657Z,11.60
2022-12-27T11:41:15.421Z,14.20
2022-12-27T11:43:45.617Z,12.40
2022-12-27T11:46:22.771Z,11.70
2022-12-27T11:48:57.331Z,13.50
2022-12-27T11:51:46.724Z,14.10
2022-12-27T11:54:29.944Z,12.20
2022-12-27T11:57:19.705Z,12.50
2022-12-27T11:59:53.293Z,12.70
2022-12-27T12:02:46.120Z,12.50
2022-12-27T12:05:41.898Z,11.70
2022-12-27T12:08:28.402Z,124.40
2022-12-27T12:11:14.871Z,90.20
2022-12-27T12:13:55.714Z,28.00
2022-12-27T12:16:55.986Z,26.80
2022-12-27T12:20:06.778Z,25.10
2022-12-27T12:22:43.777Z,21.30
2022-12-27T12:25:20.564Z,11.00
2022-12-27T12:28:00.997Z,16.40
2022-12-27T12:30:56.586Z,9.80
2022-12-27T12:33:54.917Z,12.60
2022-12-27T12:36:40.636Z,24.20
2022-12-27T12:39:39.207Z,16.50
2022-12-27T12:42:43.063Z,19.90
2022-12-27T12:45:32.372Z,16.90
2022-12-27T12:48:32.092Z,16.60
2022-12-27T12:51:15.086Z,27.70
2022-12-27T12:54:07.704Z,27.40
2022-12-27T12:56:56.946Z,14.10
2022-12-27T12:59:49.686Z,15.20
2022-12-27T13:02:36.288Z,15.50
2022-12-27T13:05:14.864Z,26.40
2022-12-27T13:07:45.618Z,19.00
2022-12-27T13:10:31.864Z,15.50
2022-12-27T13:13:23.211Z,12.30
2022-12-27T13:16:03.026Z,10.90
2022-12-27T13:18:55.429Z,16.60
2022-12-27T13:21:58.730Z,30.60
2022-12-27T13:24:58.822Z,22.10
2022-12-27T13:28:01.207Z,13.00
2022-12-27T13:30:48.065Z,11.70
2022-12-27T13:33:30.235Z,10.50
2022-12-27T13:36:24.955Z,10.20
2022-12-27T13:39:13.054Z,11.60
2022-12-27T13:41:59.714Z,14.70
2022-12-27T13:44:33.520Z,8.60
2022-12-27T13:47:26.142Z,8.40
2022-12-27T13:50:04.612Z,9.60
2022-12-27T13:52:39.676Z,9.70
2022-12-27T13:55:45.740Z,8.00
2022-12-27T13:58:35.557Z,7.90
2022-12-27T14:01:15.926Z,8.60
2022-12-27T14:04:06.779Z,10.10
2022-12-27T14:06:53.550Z,8.70
2022-12-27T14:09:35.296Z,9.40
2022-12-27T14:12:09.206Z,13.00
2022-12-27T14:14:39.201Z,9.90
2022-12-27T14:17:12.900Z,10.80
2022-12-27T14:20:00.715Z,10.80
2022-12-27T14:23:20.210Z,9.80
2022-12-27T14:26:21.926Z,10.30
2022-12-27T14:28:59.718Z,18.90
2022-12-27T14:32:09.251Z,10.90
2022-12-27T14:34:36.886Z,8.00
2022-12-27T14:37:23.672Z,15.70
2022-12-27T14:40:20.437Z,14.00
2022-12-27T14:43:25.834Z,10.30
2022-12-27T14:46:05.222Z,8.40
2022-12-27T14:48:51.158Z,7.90
2022-12-27T14:52:00.409Z,9.70
2022-12-27T14:55:08.014Z,9.70
2022-12-27T14:58:00.733Z,9.80
2022-12-27T15:00:30.133Z,11.50
2022-12-27T15:03:06.839Z,10.50
2022-12-27T15:06:04.125Z,11.20
2022-12-27T15:08:45.731Z,9.80
2022-12-27T15:11:40.983Z,8.50
2022-12-27T15:14:20.682Z,7.30
2022-12-27T15:17:11.437Z,8.10
2022-12-27T15:19:45.002Z,8.80
2022-12-27T15:22:51.669Z,7.50
2022-12-27T15:25:50.227Z,9.40
2022-12-27T15:28:56.367Z,8.10
2022-12-27T15:31:33.179Z,8.30
2022-12-27T15:34:16.163Z,8.20
2022-12-27T15:36:46.789Z,8.20
2022-12-27T15:39:43.621Z,16.30
2022-12-27T15:42:46.449Z,6.50
2022-12-27T15:45:54.249Z,7.00
2022-12-27T15:48:33.161Z,7.30
2022-12-27T15:51:12.795Z,7.40
2022-12-27T15:53:52.240Z,8.60
2022-12-27T15:56:31.025Z,8.90
2022-12-27T15:59:36.643Z,8.90
2022-12-27T16:02:17.148Z,10.20
2022-12-27T16:04:52.987Z,8.70
2022-12-27T16:08:13.701Z,9.80
2022-12-27T16:10:41.624Z,10.30
2022-12-27T16:13:09.213Z,10.00
2022-12-27T16:15:43.445Z,14.50
2022-12-27T16:18:23.576Z,8.70
2022-12-27T16:21:02.020Z,7.40
2022-12-27T16:23:36.070Z,8.00
2022-12-27T16:26:07.457Z,7.60
2022-12-27T16:28:36.595Z,8.80
2022-12-27T16:31:11.773Z,7.90
2022-12-27T16:33:40.980Z,7.20
2022-12-27T16:36:11.834Z,10.30
2022-12-27T16:38:46.768Z,10.70
2022-12-27T16:41:15.544Z,13.00
2022-12-27T16:44:05.049Z,7.80
2022-12-27T16:46:55.061Z,9.50
2022-12-27T16:49:52.560Z,10.50
2022-12-27T16:52:25.918Z,10.80
2022-12-27T16:55:22.576Z,8.20
2022-12-27T16:57:50.857Z,10.60
2022-12-27T17:01:04.003Z,8.40
2022-12-27T17:03:38.391Z,8.10
2022-12-27T17:06:31.888Z,9.40
2022-12-27T17:09:09.668Z,8.50
2022-12-27T17:11:49.872Z,7.90
2022-12-27T17:14:26.307Z,8.10
2022-12-27T17:16:57.292Z,8.00
2022-12-27T17:19:32.326Z,9.50
2022-12-27T17:22:02.954Z,9.70
2022-12-27T17:24:30.677Z,11.20
2022-12-27T17:27:16.757Z,12.80
2022-12-27T17:30:13.147Z,8.40
2022-12-27T17:33:09.853Z,11.10
2022-12-27T17:35:46.881Z,13.50
2022-12-27T17:38:41.153Z,8.50
2022-12-27T17:41:52.420Z,8.50
2022-12-27T17:44:41.977Z,7.60
2022-12-27T17:47:37.100Z,10.70
2022-12-27T17:50:09.010Z,10.80
2022-12-27T17:52:55.617Z,9.00
2022-12-27T17:55:45.098Z,8.50
2022-12-27T17:58:16.257Z,8.80
2022-12-27T18:00:49.949Z,9.90
2022-12-27T18:03:17.852Z,11.30
2022-12-27T18:05:46.585Z,9.40
2022-12-27T18:08:20.489Z,10.10
2022-12-27T18:10:48.287Z,8.80
2022-12-27T18:13:18.498Z,11.80
2022-12-27T18:15:48.262Z,13.40
2022-12-27T18:18:25.746Z,13.60
2022-12-27T18:20:59.714Z,12.90
2022-12-27T18:23:28.043Z,10.70
2022-12-27T18:26:02.072Z,9.80
2022-12-27T18:28:34.463Z,11.30
2022-12-27T18:31:26.991Z,11.30
2022-12-27T18:34:00.805Z,13.80
2022-12-27T18:36:36.222Z,12.20
2022-12-27T18:39:08.675Z,10.80
2022-12-27T18:41:48.467Z,10.70
2022-12-27T18:44:26.505Z,11.10
2022-12-27T18:47:00.851Z,11.20
2022-12-27T18:49:35.888Z,11.30
2022-12-27T18:52:13.692Z,11.20
2022-12-27T18:54:42.084Z,12.30
2022-12-27T18:57:33.341Z,12.50
2022-12-27T19:00:13.145Z,10.20
2022-12-27T19:02:41.268Z,11.90
2022-12-27T19:05:21.743Z,11.30
2022-12-27T19:07:58.646Z,11.40
2022-12-27T19:10:28.558Z,11.20
2022-12-27T19:12:57.309Z,12.90
2022-12-27T19:15:28.307Z,11.40
2022-12-27T19:18:01.449Z,21.70
2022-12-27T19:20:34.952Z,17.10
2022-12-27T19:23:05.724Z,20.00
2022-12-27T19:25:35.387Z,14.40
2022-12-27T19:28:09.084Z,15.10
2022-12-27T19:30:38.633Z,13.30
2022-12-27T19:33:11.393Z,12.80
2022-12-27T19:35:40.540Z,12.60
2022-12-27T19:38:17.229Z,12.80
2022-12-27T19:40:46.317Z,13.90
2022-12-27T19:43:14.568Z,16.20
2022-12-27T19:45:42.284Z,18.60
2022-12-27T19:48:10.788Z,12.20
2022-12-27T19:50:41.827Z,15.20
2022-12-27T19:53:15.802Z,13.50
2022-12-27T19:55:43.499Z,13.20
2022-12-27T19:58:20.378Z,12.90
2022-12-27T20:00:48.079Z,11.40
2022-12-27T20:03:17.044Z,13.30
2022-12-27T20:06:14.620Z,14.90
2022-12-27T20:08:35.228Z,25.50
2022-12-27T20:11:04.965Z,12.50
2022-12-27T20:13:32.728Z,12.50
2022-12-27T20:16:00.855Z,14.50
2022-12-27T20:18:28.603Z,16.90
2022-12-27T20:20:57.251Z,14.90
2022-12-27T20:23:24.975Z,14.30
2022-12-27T20:25:52.848Z,13.50
2022-12-27T20:28:20.516Z,12.80
2022-12-27T20:30:48.286Z,12.80
2022-12-27T20:33:16.034Z,22.80
2022-12-27T20:35:43.755Z,20.90
2022-12-27T20:38:11.875Z,17.90
2022-12-27T20:40:40.924Z,12.90
2022-12-27T20:43:08.538Z,12.90
2022-12-27T20:45:36.729Z,13.70
2022-12-27T20:48:04.720Z,14.90
2022-12-27T20:50:32.417Z,12.60
2022-12-27T20:53:00.173Z,13.90
2022-12-27T20:55:27.861Z,12.60
2022-12-27T20:57:55.680Z,13.00
2022-12-27T21:00:23.326Z,13.50
2022-12-27T21:02:51.113Z,14.10
2022-12-27T21:05:19.364Z,13.70
2022-12-27T21:07:47.082Z,17.10
2022-12-27T21:10:14.928Z,13.90
2022-12-27T21:12:42.602Z,15.30
2022-12-27T21:15:10.876Z,14.40
2022-12-27T21:17:38.612Z,14.50
2022-12-27T21:20:10.876Z,13.20
2022-12-27T21:22:38.845Z,13.90
2022-12-27T21:25:06.792Z,14.10
2022-12-27T21:27:34.583Z,13.90
2022-12-27T21:30:03.003Z,15.60
2022-12-27T21:32:30.744Z,14.00
2022-12-27T21:34:58.423Z,15.80
2022-12-27T21:37:26.092Z,14.80
2022-12-27T21:39:53.763Z,13.40
2022-12-27T21:42:21.416Z,13.40
2022-12-27T21:44:49.148Z,13.70
2022-12-27T21:47:16.777Z,14.90
2022-12-27T21:49:45.113Z,13.40
2022-12-27T21:52:12.776Z,14.50
2022-12-27T21:54:40.421Z,19.30
2022-12-27T21:57:08.111Z,22.70
2022-12-27T21:59:35.796Z,13.40
2022-12-27T22:02:03.656Z,14.20
2022-12-27T22:04:31.346Z,16.40
2022-12-27T22:06:58.989Z,16.00
2022-12-27T22:09:26.785Z,12.50
2022-12-27T22:11:54.493Z,11.50
2022-12-27T22:14:25.648Z,13.20
2022-12-27T22:16:54.032Z,12.80
2022-12-27T22:19:21.801Z,12.70
2022-12-27T22:21:49.537Z,14.80
2022-12-27T22:24:19.689Z,15.70
2022-12-27T22:26:48.655Z,14.40
2022-12-27T22:29:17.387Z,16.00
2022-12-27T22:31:45.069Z,15.10
2022-12-27T22:34:12.718Z,14.20
2022-12-27T22:36:40.393Z,13.90
2022-12-27T22:39:08.214Z,13.90
2022-12-27T22:41:37.172Z,15.70
2022-12-27T22:44:11.453Z,14.90
2022-12-27T22:47:06.998Z,15.80
2022-12-27T22:49:27.831Z,15.90
2022-12-27T22:51:55.522Z,15.00
2022-12-27T22:55:03.143Z,15.50
2022-12-27T22:57:10.818Z,16.80
2022-12-27T22:59:38.519Z,14.30
2022-12-27T23:02:06.444Z,14.00
2022-12-27T23:04:34.241Z,14.20
2022-12-27T23:07:02.177Z,12.90
2022-12-27T23:09:29.899Z,12.40
2022-12-27T23:11:57.550Z,12.70
2022-12-27T23:14:25.259Z,12.90
2022-12-27T23:16:53.144Z,13.10
2022-12-27T23:19:21.895Z,11.30
2022-12-27T23:21:49.965Z,12.10
2022-12-27T23:24:17.639Z,11.00
2022-12-27T23:26:45.598Z,11.80
2022-12-27T23:29:13.797Z,10.50
2022-12-27T23:31:54.849Z,10.70
2022-12-27T23:34:28.061Z,10.00
2022-12-27T23:36:58.073Z,10.40
2022-12-27T23:39:26.038Z,11.40
2022-12-27T23:41:54.072Z,11.60
2022-12-27T23:44:33.229Z,10.80
2022-12-27T23:47:05.111Z,11.60
2022-12-27T23:49:33.994Z,10.90
2022-12-27T23:52:01.993Z,10.40
2022-12-27T23:54:29.976Z,11.70
2022-12-27T23:56:57.737Z,11.60
2022-12-27T23:59:25.352Z,10.80
